Time;durP1;ratioP1;P1;durP2;ratioP2;P2;SDS_P1;SDS_P2;PMS_P1;PMS_P2;Temp;Humidity;BMP_temperature;BMP_pressure;BME280_temperature;BME280_humidity;BME280_pressure;Samples;Min_cycle;Max_cycle;Signal;HPM_P1;HPM_P2
2022/11/06 00:02:10;;;;;;;6.97;3.25;;;9.90;99.90;;;;;;4979487;28;20050;-93
2022/11/06 00:09:01;;;;;;;9.98;3.05;;;9.90;99.90;;;;;;5071335;28;20133;-93
2022/11/06 00:12:04;;;;;;;6.68;2.97;;;9.90;99.90;;;;;;5063329;28;20102;-94
2022/11/06 00:14:54;;;;;;;7.55;2.78;;;9.80;99.90;;;;;;5068555;28;20076;-93
2022/11/06 00:17:46;;;;;;;7.53;3.50;;;9.90;99.90;;;;;;5056326;28;20065;-92
2022/11/06 00:20:32;;;;;;;5.40;2.72;;;9.90;99.90;;;;;;5063613;28;20044;-93
2022/11/06 00:23:24;;;;;;;5.10;2.83;;;9.90;99.90;;;;;;5060485;28;20055;-93
2022/11/06 00:26:24;;;;;;;10.65;2.90;;;9.80;99.90;;;;;;5125124;28;20044;-93
2022/11/06 00:29:55;;;;;;;6.55;2.65;;;9.90;99.90;;;;;;5125189;27;20047;-94
2022/11/06 00:33:06;;;;;;;8.43;3.08;;;9.80;99.90;;;;;;5126685;28;20498;-93
2022/11/06 00:35:33;;;;;;;9.65;3.35;;;9.90;99.90;;;;;;5091738;28;20050;-92
2022/11/06 00:38:14;;;;;;;8.68;3.45;;;9.80;99.90;;;;;;5096840;28;20081;-92
2022/11/06 00:40:45;;;;;;;13.32;3.63;;;9.80;99.90;;;;;;5123944;28;20104;-93
2022/11/06 00:43:32;;;;;;;7.95;3.90;;;9.80;99.90;;;;;;5065847;28;20149;-92
2022/11/06 00:46:29;;;;;;;6.30;3.60;;;9.80;99.90;;;;;;5076467;28;20043;-93
2022/11/06 00:49:00;;;;;;;11.65;3.08;;;9.80;99.90;;;;;;5077677;28;20186;-94
2022/11/06 00:51:48;;;;;;;7.82;3.95;;;9.80;99.90;;;;;;5083928;28;20135;-93
2022/11/06 00:54:34;;;;;;;8.75;3.53;;;9.80;99.90;;;;;;5075736;28;20067;-92
2022/11/06 00:57:29;;;;;;;10.23;3.80;;;9.80;99.90;;;;;;5078563;28;20047;-93
2022/11/06 01:00:04;;;;;;;11.40;4.63;;;9.80;99.90;;;;;;5081018;28;20063;-93
2022/11/06 01:02:31;;;;;;;8.98;4.30;;;9.80;99.90;;;;;;5079592;28;20058;-93
2022/11/06 01:05:33;;;;;;;10.80;4.63;;;9.80;99.90;;;;;;5061264;28;20054;-95
2022/11/06 01:08:20;;;;;;;15.07;4.50;;;9.70;99.90;;;;;;5045437;28;20053;-93
2022/11/06 01:10:57;;;;;;;14.50;4.50;;;9.60;99.90;;;;;;5051893;28;20095;-93
2022/11/06 01:13:42;;;;;;;8.77;3.60;;;9.70;99.90;;;;;;5060234;28;20084;-93
2022/11/06 01:16:20;;;;;;;10.93;4.60;;;9.70;99.90;;;;;;5072859;28;20232;-93
2022/11/06 01:23:54;;;;;;;3.63;1.58;;;9.60;99.90;;;;;;4953284;28;20066;-94
2022/11/06 01:26:27;;;;;;;8.38;3.80;;;9.60;99.90;;;;;;4920914;29;20423;-93
2022/11/06 01:29:46;;;;;;;11.43;3.92;;;9.60;99.90;;;;;;4936245;29;20128;-95
2022/11/06 01:36:29;;;;;;;11.40;3.70;;;9.60;99.90;;;;;;4935734;29;20059;-94
2022/11/06 01:39:37;;;;;;;10.68;4.15;;;9.60;99.90;;;;;;4912078;29;20093;-95
2022/11/06 01:42:33;;;;;;;;;;;;;;;;;;;;;
2022/11/06 01:46:06;;;;;;;9.10;3.13;;;9.50;99.90;;;;;;4868170;29;20131;-94
2022/11/06 01:49:20;;;;;;;5.47;3.50;;;9.50;99.90;;;;;;4918870;29;20067;-94
2022/11/06 01:52:42;;;;;;;11.15;4.57;;;9.50;99.90;;;;;;4897599;29;20048;-93
2022/11/06 01:55:25;;;;;;;10.80;3.90;;;9.50;99.90;;;;;;4947426;29;20185;-94
2022/11/06 01:58:29;;;;;;;9.55;3.47;;;9.50;99.90;;;;;;5022945;28;20052;-91
2022/11/06 02:01:24;;;;;;;9.70;4.25;;;9.50;99.90;;;;;;4987285;28;20089;-92
2022/11/06 02:04:53;;;;;;;5.95;3.03;;;9.50;99.90;;;;;;5000411;28;20052;-94
2022/11/06 02:08:05;;;;;;;9.38;3.45;;;9.50;99.90;;;;;;5006494;28;20050;-93
2022/11/06 02:15:22;;;;;;;7.20;3.17;;;9.50;99.90;;;;;;5093042;28;20052;-93
2022/11/06 02:18:45;;;;;;;10.90;4.15;;;9.40;99.90;;;;;;5094861;28;20184;-92
2022/11/06 02:22:01;;;;;;;5.35;3.20;;;9.40;99.90;;;;;;5093018;28;20048;-95
2022/11/06 02:25:12;;;;;;;9.20;2.85;;;9.40;99.90;;;;;;5075902;28;20071;-93
2022/11/06 02:27:46;;;;;;;10.50;4.05;;;9.40;99.90;;;;;;5075891;28;20499;-93
2022/11/06 02:30:44;;;;;;;6.80;4.53;;;9.40;99.90;;;;;;5055810;28;20089;-93
2022/11/06 02:34:05;;;;;;;5.13;3.53;;;9.40;99.90;;;;;;5063597;28;20048;-95
2022/11/06 02:37:26;;;;;;;8.00;3.80;;;9.40;99.90;;;;;;5113138;28;20597;-93
2022/11/06 02:40:39;;;;;;;8.68;3.15;;;9.40;99.90;;;;;;5044797;28;20052;-92
2022/11/06 02:43:55;;;;;;;8.00;3.35;;;9.40;99.90;;;;;;5036748;28;20113;-94
2022/11/06 02:47:14;;;;;;;9.73;4.00;;;9.40;99.90;;;;;;5071956;28;20052;-94
2022/11/06 02:50:42;;;;;;;10.15;3.58;;;9.40;99.90;;;;;;5058189;28;20126;-94
2022/11/06 02:53:38;;;;;;;9.32;4.50;;;9.40;99.90;;;;;;5056435;28;20049;-93
2022/11/06 02:56:59;;;;;;;10.73;4.32;;;9.40;99.90;;;;;;5067286;28;20062;-94
2022/11/06 03:00:27;;;;;;;10.65;3.60;;;9.40;99.90;;;;;;5085260;28;20036;-93
2022/11/06 03:03:54;;;;;;;11.50;3.67;;;9.40;99.90;;;;;;5071777;28;20095;-95
2022/11/06 03:07:33;;;;;;;7.88;3.40;;;9.40;99.90;;;;;;5087276;28;20048;-94
2022/11/06 03:11:21;;;;;;;9.90;4.03;;;9.40;99.90;;;;;;5084780;28;20573;-93
2022/11/06 03:18:46;;;;;;;8.40;3.70;;;9.40;99.90;;;;;;5080829;28;20099;-93
2022/11/06 03:22:05;;;;;;;8.38;3.97;;;9.40;99.90;;;;;;5110037;28;20050;-93
2022/11/06 03:25:58;;;;;;;7.47;3.88;;;9.30;99.90;;;;;;5113554;28;20050;-93
2022/11/06 03:28:57;;;;;;;9.43;3.58;;;9.40;99.90;;;;;;5003298;28;20084;-95
2022/11/06 03:35:44;;;;;;;12.30;4.40;;;9.30;99.90;;;;;;5071177;28;20056;-94
2022/11/06 03:38:47;;;;;;;14.40;3.47;;;9.40;99.90;;;;;;5041722;28;20071;-93
2022/11/06 03:42:01;;;;;;;9.40;3.58;;;9.40;99.90;;;;;;5092363;28;20098;-94
2022/11/06 03:45:03;;;;;;;7.07;3.63;;;9.40;99.90;;;;;;5106193;28;20071;-93
2022/11/06 03:48:11;;;;;;;9.00;3.95;;;9.40;99.90;;;;;;5078679;28;20141;-94
2022/11/06 03:51:08;;;;;;;9.63;3.47;;;9.40;99.90;;;;;;5100590;28;20047;-94
2022/11/06 03:54:29;;;;;;;7.35;3.55;;;9.40;99.90;;;;;;5112259;28;20058;-92
2022/11/06 04:00:33;;;;;;;10.70;4.15;;;9.40;99.90;;;;;;5112371;28;20047;-92
2022/11/06 04:03:55;;;;;;;11.70;3.67;;;9.40;99.90;;;;;;5083856;28;20376;-93
2022/11/06 04:07:15;;;;;;;10.77;3.40;;;9.40;99.90;;;;;;5098452;28;20132;-94
2022/11/06 04:13:56;;;;;;;6.47;3.20;;;9.40;99.90;;;;;;5091842;28;20075;-92
2022/11/06 04:16:58;;;;;;;7.85;3.47;;;9.40;99.90;;;;;;5091932;28;20048;-93
2022/11/06 04:21:20;;;;;;;5.85;3.47;;;9.40;99.90;;;;;;5092943;28;20044;-92
2022/11/06 04:26:34;;;;;;;8.57;3.30;;;9.40;99.90;;;;;;5116900;28;20114;-92
2022/11/06 04:30:31;;;;;;;11.05;3.40;;;9.30;99.90;;;;;;5061558;28;20045;-93
2022/11/06 04:33:55;;;;;;;10.60;3.80;;;9.30;99.90;;;;;;5125974;28;20039;-92
2022/11/06 04:37:46;;;;;;;5.43;2.92;;;9.40;99.90;;;;;;5090479;28;20048;-94
2022/11/06 04:41:06;;;;;;;7.07;2.73;;;9.30;99.90;;;;;;5004330;28;20143;-95
2022/11/06 04:48:01;;;;;;;6.82;3.33;;;9.30;99.90;;;;;;5067754;28;20632;-94
2022/11/06 04:50:57;;;;;;;6.40;2.67;;;9.30;99.90;;;;;;5057883;28;20086;-91
2022/11/06 04:58:01;;;;;;;11.32;3.40;;;9.30;99.90;;;;;;5037371;28;20049;-93
2022/11/06 05:01:09;;;;;;;9.05;3.47;;;9.30;99.90;;;;;;4977985;28;20081;-91
2022/11/06 05:08:04;;;;;;;10.07;3.00;;;9.30;99.90;;;;;;5019643;28;20089;-94
2022/11/06 05:11:54;;;;;;;9.55;2.70;;;9.40;99.90;;;;;;4932496;29;20048;-94
2022/11/06 05:15:08;;;;;;;6.57;2.80;;;9.40;99.90;;;;;;4928288;29;20055;-93
2022/11/06 05:19:02;;;;;;;5.88;2.70;;;9.40;99.90;;;;;;4913401;29;20118;-95
2022/11/06 05:23:00;;;;;;;5.28;2.78;;;9.40;99.90;;;;;;4844427;29;20103;-94
2022/11/06 05:26:31;;;;;;;6.05;2.63;;;9.40;99.90;;;;;;4853710;29;20050;-94
2022/11/06 05:30:05;;;;;;;13.32;3.17;;;9.30;99.90;;;;;;4928700;29;20058;-94
2022/11/06 05:34:14;;;;;;;8.23;2.60;;;9.40;99.90;;;;;;4927730;28;20108;-93
2022/11/06 05:41:24;;;;;;;;;;;;;;;;;;;;;
2022/11/06 05:45:26;;;;;;;5.15;2.45;;;9.40;99.90;;;;;;4935779;29;20563;-93
2022/11/06 05:49:06;;;;;;;9.32;2.67;;;9.40;99.90;;;;;;4874752;29;20521;-93
2022/11/06 05:52:08;;;;;;;6.72;2.83;;;9.40;99.90;;;;;;4845021;29;20050;-94
2022/11/06 05:55:11;;;;;;;7.88;2.28;;;9.40;99.90;;;;;;4858961;29;20565;-93
2022/11/06 05:58:34;;;;;;;6.40;2.45;;;9.40;99.90;;;;;;4823664;29;20066;-93
2022/11/06 06:05:37;;;;;;;5.28;1.95;;;9.30;99.90;;;;;;4841755;29;20148;-93
2022/11/06 06:09:45;;;;;;;12.77;2.83;;;9.40;99.90;;;;;;4854044;29;20058;-95
2022/11/06 06:24:58;;;;;;;7.00;2.47;;;9.40;99.90;;;;;;4930178;29;20227;-95
2022/11/06 06:31:27;;;;;;;14.07;3.63;;;9.30;99.90;;;;;;4900759;29;19923;-93
2022/11/06 06:46:06;;;;;;;;;;;9.40;99.90;;;;;;5013185;28;20068;-93
2022/11/06 07:00:58;;;;;;;7.57;2.28;;;9.30;99.90;;;;;;4853257;29;20526;-94
2022/11/06 07:07:35;;;;;;;10.80;2.85;;;9.40;99.90;;;;;;4831799;29;20103;-94
2022/11/06 07:11:20;;;;;;;8.20;2.20;;;9.30;99.90;;;;;;4821757;29;20058;-93
2022/11/06 07:15:08;;;;;;;12.55;2.90;;;9.40;99.90;;;;;;4769935;29;20048;-92
2022/11/06 07:18:41;;;;;;;10.82;3.15;;;9.40;99.90;;;;;;4804363;29;20086;-93
2022/11/06 07:26:16;;;;;;;7.28;2.58;;;9.40;99.90;;;;;;4824745;29;20114;-94
2022/11/06 07:29:59;;;;;;;;;;;;;;;;;;;;;
2022/11/06 07:33:44;;;;;;;3.78;1.98;;;9.50;99.90;;;;;;4846406;29;20060;-94
2022/11/06 07:37:16;;;;;;;11.48;2.15;;;9.50;99.90;;;;;;4886153;29;20055;-94
2022/11/06 08:11:16;;;;;;;4.45;1.63;;;9.80;99.90;;;;;;4895216;29;20042;-94
2022/11/06 08:31:19;;;;;;;5.50;1.80;;;10.00;99.90;;;;;;4943739;28;20135;-93
2022/11/06 08:38:48;;;;;;;5.70;1.50;;;10.10;99.90;;;;;;5034261;28;20083;-92
2022/11/06 08:41:45;;;;;;;9.48;1.70;;;10.10;99.90;;;;;;4982627;28;20523;-93
2022/11/06 08:45:34;;;;;;;9.65;1.95;;;10.10;99.90;;;;;;5037420;28;20170;-95
2022/11/06 08:49:07;;;;;;;8.88;1.55;;;10.20;99.90;;;;;;4980431;28;20105;-94
2022/11/06 08:56:32;;;;;;;12.27;1.77;;;10.20;99.90;;;;;;4955541;28;20052;-93
2022/11/06 09:00:19;;;;;;;8.15;2.13;;;10.10;99.90;;;;;;4923408;29;20084;-92
2022/11/06 09:03:57;;;;;;;9.30;1.40;;;10.10;99.90;;;;;;4886735;29;20170;-93
2022/11/06 09:11:50;;;;;;;5.25;2.00;;;10.20;99.90;;;;;;4813451;29;20119;-95
2022/11/06 09:22:28;;;;;;;7.43;1.40;;;10.20;99.90;;;;;;4860978;29;20066;-94
2022/11/06 09:43:13;;;;;;;6.07;1.35;;;10.30;99.90;;;;;;4877148;29;20094;-96
2022/11/06 09:46:54;;;;;;;9.80;1.67;;;10.40;99.90;;;;;;4875572;29;20059;-93
2022/11/06 09:50:14;;;;;;;6.88;1.80;;;10.40;99.90;;;;;;4878352;29;20057;-94
2022/11/06 09:57:28;;;;;;;12.23;3.92;;;10.60;99.90;;;;;;4909012;29;20040;-94
2022/11/06 10:00:32;;;;;;;7.63;1.10;;;10.60;99.90;;;;;;4897175;29;20059;-94
2022/11/06 10:03:54;;;;;;;;;;;;;;;;;;;;;
2022/11/06 10:29:20;;;;;;;;;;;;;;;;;;;;;
2022/11/06 10:39:58;;;;;;;4.32;1.30;;;11.20;99.90;;;;;;4920329;29;20051;-94
2022/11/06 10:46:16;;;;;;;9.18;3.03;;;11.40;99.90;;;;;;4914946;29;20064;-94
2022/11/06 10:49:30;;;;;;;15.80;1.90;;;11.50;99.90;;;;;;4872248;29;20509;-93
2022/11/06 10:53:05;;;;;;;10.45;1.50;;;11.40;99.90;;;;;;4937624;29;20074;-92
2022/11/06 11:04:12;;;;;;;8.05;2.47;;;11.50;99.90;;;;;;4987488;28;20049;-95
2022/11/06 11:11:35;;;;;;;8.30;1.23;;;11.60;99.90;;;;;;5011995;28;20537;-95
2022/11/06 11:18:59;;;;;;;;;;;11.90;99.90;;;;;;4992486;28;20549;-94
2022/11/06 11:26:09;;;;;;;;;;;11.90;99.90;;;;;;4985784;28;20041;-94
2022/11/06 11:44:22;;;;;;;7.18;2.55;;;11.50;99.90;;;;;;4912629;29;20781;-93
2022/11/06 11:48:05;;;;;;;3.42;1.13;;;11.40;99.90;;;;;;4957458;28;20109;-93
2022/11/06 11:50:56;;;;;;;3.45;0.75;;;11.40;99.90;;;;;;4960628;28;20114;-93
2022/11/06 11:53:22;;;;;;;3.38;1.10;;;11.40;99.90;;;;;;4958082;28;20054;-94
2022/11/06 11:55:51;;;;;;;6.13;1.40;;;11.30;99.90;;;;;;4995296;28;20046;-92
2022/11/06 11:58:25;;;;;;;8.95;1.45;;;11.40;99.90;;;;;;4998571;28;20045;-93
2022/11/06 12:01:36;;;;;;;6.53;1.58;;;11.40;99.90;;;;;;4996429;28;20038;-93
2022/11/06 12:04:16;;;;;;;5.47;1.42;;;11.40;99.90;;;;;;4992665;28;20041;-93
2022/11/06 12:10:58;;;;;;;8.23;1.90;;;11.40;99.90;;;;;;5032614;28;20056;-92
2022/11/06 12:13:30;;;;;;;3.42;1.08;;;11.40;99.90;;;;;;5014948;28;20053;-94
2022/11/06 12:16:00;;;;;;;3.72;0.80;;;11.40;99.90;;;;;;5026307;28;20127;-94
2022/11/06 12:18:57;;;;;;;3.88;0.85;;;11.50;99.90;;;;;;5042037;28;20540;-94
2022/11/06 12:22:06;;;;;;;9.18;1.27;;;11.50;99.90;;;;;;5059658;28;20058;-96
2022/11/06 12:25:51;;;;;;;9.95;1.10;;;11.50;99.90;;;;;;5088703;28;20039;-92
2022/11/06 12:29:01;;;;;;;5.93;0.80;;;11.60;99.90;;;;;;5001192;28;20061;-93
2022/11/06 12:31:46;;;;;;;;;;;11.70;99.90;;;;;;5074510;28;20043;-93
2022/11/06 12:35:07;;;;;;;2.83;1.23;;;11.80;99.90;;;;;;5111546;28;19972;-94
2022/11/06 12:38:02;;;;;;;7.40;1.88;;;11.90;99.90;;;;;;5036513;28;20048;-94
2022/11/06 12:40:52;;;;;;;9.68;1.20;;;12.00;99.90;;;;;;5029711;28;20563;-93
2022/11/06 12:48:01;;;;;;;4.93;1.10;;;12.00;99.90;;;;;;5068510;28;20495;-93
2022/11/06 12:51:26;;;;;;;2.92;0.90;;;12.10;99.90;;;;;;4978112;28;20089;-94
2022/11/06 12:55:03;;;;;;;;;;;;;;;;;;;;;
2022/11/06 12:59:03;;;;;;;3.97;0.80;;;12.40;99.90;;;;;;4919926;29;20088;-96
2022/11/06 13:02:20;;;;;;;5.25;1.10;;;12.70;99.90;;;;;;4879945;29;20378;-95
2022/11/06 13:08:59;;;;;;;2.60;0.70;;;12.80;99.90;;;;;;4824118;29;20058;-96
2022/11/06 13:20:21;;;;;;;10.18;1.23;;;12.70;99.90;;;;;;4935291;29;20547;-95
2022/11/06 13:34:53;;;;;;;3.08;1.00;;;12.40;99.90;;;;;;4810316;29;20062;-95
2022/11/06 13:38:37;;;;;;;4.40;1.35;;;12.30;99.90;;;;;;4796915;29;20098;-96
2022/11/06 13:47:31;;;;;;;4.78;0.82;;;12.20;99.90;;;;;;4865329;29;20060;-96
2022/11/06 14:10:25;;;;;;;6.03;0.82;;;12.10;99.90;;;;;;4872799;29;20067;-96
2022/11/06 14:22:00;;;;;;;4.38;0.93;;;12.00;99.90;;;;;;4867313;29;20049;-95
2022/11/06 14:44:28;;;;;;;;;;;;;;;;;;;;;
2022/11/06 14:55:33;;;;;;;4.50;1.27;;;11.70;99.90;;;;;;4791495;29;19987;-93
2022/11/06 15:11:22;;;;;;;5.57;0.95;;;11.70;99.90;;;;;;4795032;29;20050;-94
2022/11/06 15:19:18;;;;;;;;;;;;;;;;;;;;;
2022/11/06 15:38:39;;;;;;;2.45;1.02;;;11.60;99.90;;;;;;4897282;29;20097;-92
2022/11/06 15:47:00;;;;;;;4.45;0.80;;;11.50;99.90;;;;;;4889064;29;20064;-93
2022/11/06 16:22:08;;;;;;;4.88;1.42;;;11.20;99.90;;;;;;4979961;28;20446;-96
2022/11/06 16:57:22;;;;;;;5.47;1.75;;;10.70;99.90;;;;;;4906390;29;20067;-95
2022/11/06 17:05:09;;;;;;;5.28;1.15;;;10.50;99.90;;;;;;4973107;28;20450;-94
2022/11/06 17:08:26;;;;;;;4.72;1.50;;;10.40;99.90;;;;;;5011018;28;20650;-95
2022/11/06 17:11:13;;;;;;;7.22;1.77;;;10.30;99.90;;;;;;5062966;28;20475;-94
2022/11/06 17:17:06;;;;;;;3.83;0.93;;;10.10;99.90;;;;;;5113858;28;20086;-95
2022/11/06 17:19:39;;;;;;;1.93;1.00;;;10.10;99.90;;;;;;5040624;28;20044;-95
2022/11/06 17:28:52;;;;;;;;;;;;;;;;;;;;;
2022/11/06 17:34:31;;;;;;;2.08;1.23;;;9.60;99.90;;;;;;5086928;28;20117;-96
2022/11/06 17:37:22;;;;;;;0.45;0.32;;;9.50;99.90;;;;;;5076520;28;20056;-96
2022/11/06 17:40:28;;;;;;;1.48;0.57;;;9.30;99.90;;;;;;5066745;28;20051;-95
2022/11/06 17:43:15;;;;;;;2.90;1.05;;;9.10;99.90;;;;;;5057969;28;20051;-96
2022/11/06 17:46:03;;;;;;;2.50;0.70;;;9.00;99.90;;;;;;5074307;28;20063;-96
2022/11/06 17:48:45;;;;;;;2.88;0.98;;;8.90;99.90;;;;;;5061497;28;20222;-95
2022/11/06 17:54:02;;;;;;;0.55;0.45;;;8.70;99.90;;;;;;5101478;28;20046;-96
2022/11/06 17:56:52;;;;;;;2.63;0.95;;;8.60;99.90;;;;;;5095740;27;20054;-95
2022/11/06 17:59:45;;;;;;;1.20;0.95;;;8.60;99.90;;;;;;5068434;27;20094;-95
2022/11/06 18:02:34;;;;;;;2.08;0.73;;;8.60;99.90;;;;;;5096673;28;20051;-95
2022/11/06 18:05:11;;;;;;;1.15;0.60;;;8.50;99.90;;;;;;5089862;27;20043;-95
2022/11/06 18:07:42;;;;;;;0.80;0.35;;;8.50;99.90;;;;;;5054096;28;20040;-94
2022/11/06 18:10:13;;;;;;;2.05;0.80;;;8.40;99.90;;;;;;5062187;28;20066;-95
2022/11/06 18:13:07;;;;;;;2.92;0.85;;;8.50;99.90;;;;;;5063678;28;20039;-95
2022/11/06 18:16:41;;;;;;;1.77;0.90;;;8.50;99.90;;;;;;5116038;28;20054;-96
2022/11/06 18:23:31;;;;;;;2.08;0.60;;;8.50;99.90;;;;;;5112475;28;20042;-96
2022/11/06 18:26:56;;;;;;;2.08;0.90;;;8.50;99.90;;;;;;5097478;28;20038;-95
2022/11/06 18:30:40;;;;;;;1.85;0.52;;;8.50;99.90;;;;;;5033330;28;20050;-96
2022/11/06 18:34:13;;;;;;;1.83;0.95;;;8.50;99.90;;;;;;4900209;29;20056;-95
2022/11/06 18:41:30;;;;;;;;;;;;;;;;;;;;;
2022/11/06 18:45:08;;;;;;;4.30;0.93;;;8.40;99.90;;;;;;4774683;29;20594;-96
2022/11/06 18:49:34;;;;;;;0.60;0.47;;;8.40;99.90;;;;;;4813798;29;20072;-95
2022/11/06 18:53:21;;;;;;;5.00;0.93;;;8.30;99.90;;;;;;4799767;29;20100;-96
2022/11/06 19:02:11;;;;;;;1.08;0.80;;;8.40;99.90;;;;;;4743305;30;20067;-94
2022/11/06 19:06:15;;;;;;;0.90;0.88;;;8.40;99.90;;;;;;4733654;30;20091;-95
2022/11/06 19:24:26;;;;;;;4.40;1.27;;;8.50;99.90;;;;;;4868409;29;20039;-96
2022/11/06 19:27:40;;;;;;;3.38;1.20;;;8.50;99.90;;;;;;4873838;29;20052;-96
2022/11/06 19:31:44;;;;;;;;;;;;;;;;;;;;;
2022/11/06 19:42:38;;;;;;;6.88;1.88;;;8.50;99.90;;;;;;4843428;29;20053;-96
2022/11/06 19:45:45;;;;;;;1.05;0.95;;;8.50;99.90;;;;;;4784538;29;20058;-96
2022/11/06 20:03:43;;;;;;;4.45;2.20;;;8.60;99.90;;;;;;4859396;29;20137;-95
2022/11/06 20:15:08;;;;;;;3.55;2.13;;;8.50;99.90;;;;;;4935901;28;20047;-95
2022/11/06 20:18:57;;;;;;;2.25;1.08;;;8.40;99.90;;;;;;4940922;28;20042;-95
2022/11/06 20:26:47;;;;;;;4.03;1.13;;;8.50;99.90;;;;;;4971283;28;20051;-96
2022/11/06 20:30:01;;;;;;;1.45;1.20;;;8.50;99.90;;;;;;4909652;29;20056;-96
2022/11/06 20:40:03;;;;;;;6.47;2.08;;;8.40;99.90;;;;;;4857244;29;20091;-94
2022/11/06 20:43:52;;;;;;;1.40;1.30;;;8.40;99.90;;;;;;4893034;29;20138;-95
2022/11/06 20:46:49;;;;;;;2.20;1.52;;;8.40;99.90;;;;;;4891412;29;20464;-96
2022/11/06 20:49:41;;;;;;;2.33;2.10;;;8.30;99.90;;;;;;4903337;28;20046;-96
2022/11/06 20:52:31;;;;;;;3.67;2.20;;;8.30;99.90;;;;;;4922597;28;20074;-96
2022/11/06 20:54:57;;;;;;;3.55;1.92;;;8.30;99.90;;;;;;4963037;28;20043;-94
2022/11/06 21:01:28;;;;;;;4.20;2.10;;;8.30;99.90;;;;;;4940663;28;20085;-96
2022/11/06 21:04:13;;;;;;;3.55;2.08;;;8.30;99.90;;;;;;4945559;28;20058;-96
2022/11/06 21:07:39;;;;;;;2.88;1.75;;;8.50;99.90;;;;;;4990496;28;20077;-95
2022/11/06 21:13:50;;;;;;;3.47;1.92;;;8.30;99.90;;;;;;5075898;28;20055;-95
2022/11/06 21:16:42;;;;;;;2.08;1.52;;;8.30;99.90;;;;;;5070330;28;20047;-96
2022/11/06 21:19:31;;;;;;;5.32;2.13;;;8.30;99.90;;;;;;5068370;28;20162;-96
2022/11/06 21:22:13;;;;;;;2.50;2.17;;;8.30;99.90;;;;;;5096549;28;20066;-96
2022/11/06 21:28:11;;;;;;;7.63;1.92;;;8.40;99.90;;;;;;5113888;28;20563;-96
2022/11/06 21:30:54;;;;;;;3.25;1.70;;;8.40;99.90;;;;;;5063318;28;20046;-95
2022/11/06 21:33:41;;;;;;;2.42;2.20;;;8.40;99.90;;;;;;5081369;28;20048;-94
2022/11/06 21:36:39;;;;;;;5.05;2.05;;;8.50;99.90;;;;;;5091641;28;20051;-96
2022/11/06 21:39:35;;;;;;;4.75;2.88;;;8.50;99.90;;;;;;5070344;28;20591;-96
2022/11/06 21:42:00;;;;;;;6.88;2.50;;;8.60;99.90;;;;;;4993820;28;20048;-95
2022/11/06 21:44:51;;;;;;;3.10;2.35;;;8.60;99.90;;;;;;4983048;28;20061;-94
2022/11/06 21:47:37;;;;;;;5.18;2.50;;;8.60;99.90;;;;;;5011743;28;20053;-96
2022/11/06 21:50:53;;;;;;;5.75;2.45;;;8.70;99.90;;;;;;5001881;28;20041;-95
2022/11/06 21:58:04;;;;;;;6.78;3.00;;;8.80;99.90;;;;;;5003045;28;20552;-95
2022/11/06 22:05:05;;;;;;;1.60;1.42;;;8.90;99.90;;;;;;5046741;28;20179;-96
2022/11/06 22:08:46;;;;;;;;;;;;;;;;;;;;;
2022/11/06 22:11:47;;;;;;;5.65;2.72;;;8.90;99.90;;;;;;5015706;28;20062;-95
2022/11/06 22:14:59;;;;;;;;;;;;;;;;;;;;;
2022/11/06 22:18:05;;;;;;;4.70;2.75;;;9.00;99.90;;;;;;4959404;28;20884;-95
2022/11/06 22:20:51;;;;;;;5.97;2.80;;;9.10;99.90;;;;;;5001435;28;20055;-95
2022/11/06 22:26:42;;;;;;;6.97;3.25;;;9.10;99.90;;;;;;4971480;28;20158;-95
2022/11/06 22:29:23;;;;;;;4.53;2.40;;;9.20;99.90;;;;;;5012573;28;20091;-95
2022/11/06 22:32:14;;;;;;;7.43;2.70;;;9.20;99.90;;;;;;5015109;28;20063;-95
2022/11/06 22:34:43;;;;;;;2.25;1.98;;;9.20;99.90;;;;;;5013010;28;20532;-95
2022/11/06 22:37:09;;;;;;;4.13;2.78;;;9.30;99.90;;;;;;5020026;27;20128;-94
2022/11/06 22:39:57;;;;;;;8.38;2.70;;;9.30;99.90;;;;;;5081241;27;20105;-94
2022/11/06 22:42:27;;;;;;;5.82;1.80;;;9.30;99.90;;;;;;5097977;27;20092;-96
2022/11/06 22:45:12;;;;;;;3.88;2.70;;;9.40;99.90;;;;;;5069935;27;20050;-96
2022/11/06 22:47:41;;;;;;;3.03;2.45;;;9.40;99.90;;;;;;5089141;27;20039;-94
2022/11/06 22:50:10;;;;;;;2.58;1.80;;;9.40;99.90;;;;;;5083833;27;20038;-95
2022/11/06 22:52:37;;;;;;;5.40;3.00;;;9.50;99.90;;;;;;5075539;27;20040;-93
2022/11/06 22:55:20;;;;;;;5.43;2.45;;;9.50;99.90;;;;;;5095161;27;20035;-95
2022/11/06 23:01:39;;;;;;;8.60;2.50;;;9.50;99.90;;;;;;5083689;27;20043;-94
2022/11/06 23:04:32;;;;;;;4.68;2.40;;;9.60;99.90;;;;;;5101974;27;20069;-96
2022/11/06 23:07:01;;;;;;;7.65;2.75;;;9.60;99.90;;;;;;5090000;27;20061;-94
2022/11/06 23:09:39;;;;;;;3.97;3.10;;;9.60;99.90;;;;;;5071840;27;20050;-95
2022/11/06 23:13:19;;;;;;;9.52;2.55;;;9.60;99.90;;;;;;5121830;27;20058;-94
2022/11/06 23:16:55;;;;;;;5.03;3.03;;;9.70;99.90;;;;;;5117188;27;20051;-95
2022/11/06 23:20:04;;;;;;;;;;;;;;;;;;;;;
2022/11/06 23:22:36;;;;;;;7.95;3.28;;;9.80;99.90;;;;;;5120134;27;20485;-94
2022/11/06 23:25:13;;;;;;;6.55;2.85;;;9.80;99.90;;;;;;5080503;27;20042;-94
2022/11/06 23:27:48;;;;;;;3.55;2.40;;;9.90;99.90;;;;;;5119857;27;20038;-95
2022/11/06 23:34:31;;;;;;;9.35;2.42;;;9.90;99.90;;;;;;5153645;27;20083;-95
2022/11/06 23:37:25;;;;;;;6.28;2.63;;;9.90;99.90;;;;;;5113365;27;20050;-94
2022/11/06 23:41:41;;;;;;;8.25;2.70;;;10.00;99.90;;;;;;5135494;27;20047;-95
2022/11/06 23:47:23;;;;;;;7.35;2.63;;;10.10;99.90;;;;;;5075030;28;20580;-95
2022/11/06 23:50:20;;;;;;;7.88;2.95;;;10.20;99.90;;;;;;5063255;28;20067;-94
2022/11/06 23:56:37;;;;;;;4.78;2.47;;;10.30;99.90;;;;;;5081116;28;20082;-96
